createdAt,value
2018-09-20T00:01:26.666Z,100879.88
2018-09-20T00:03:54.906Z,100883.81
2018-09-20T00:06:23.152Z,100883.78
2018-09-20T00:08:51.452Z,100882.23
2018-09-20T00:11:19.706Z,100885.22
2018-09-20T00:13:47.935Z,100883.50
2018-09-20T00:16:18.452Z,100875.65
2018-09-20T00:18:46.716Z,100881.83
2018-09-20T00:21:14.928Z,100874.05
2018-09-20T00:23:42.993Z,100873.90
2018-09-20T00:26:11.087Z,100868.23
2018-09-20T00:28:39.172Z,100874.56
2018-09-20T00:31:07.268Z,100874.11
2018-09-20T00:33:35.337Z,100874.78
2018-09-20T00:36:03.432Z,100879.09
2018-09-20T00:38:31.495Z,100876.73
2018-09-20T00:40:59.581Z,100877.93
2018-09-20T00:43:27.649Z,100867.94
2018-09-20T00:45:55.734Z,100871.76
2018-09-20T00:48:23.824Z,100873.47
2018-09-20T00:50:51.899Z,100862.01
2018-09-20T00:53:20.016Z,100867.63
2018-09-20T00:55:48.111Z,100872.33
2018-09-20T00:58:16.184Z,100874.52
2018-09-20T01:00:44.266Z,100881.31
2018-09-20T01:03:12.341Z,100881.83
2018-09-20T01:05:40.531Z,100883.86
2018-09-20T01:08:08.679Z,100884.93
2018-09-20T01:10:36.771Z,100883.11
2018-09-20T01:13:04.856Z,100880.04
2018-09-20T01:15:33.111Z,100877.34
2018-09-20T01:18:01.195Z,100883.50
2018-09-20T01:20:29.279Z,100879.49
2018-09-20T01:22:57.356Z,100877.05
2018-09-20T01:25:25.423Z,100880.02
2018-09-20T01:27:53.492Z,100883.71
2018-09-20T01:30:21.613Z,100880.72
2018-09-20T01:32:49.757Z,100887.00
2018-09-20T01:35:17.836Z,100892.64
2018-09-20T01:37:45.923Z,100886.09
2018-09-20T01:40:14.035Z,100888.66
2018-09-20T01:42:42.123Z,100882.94
2018-09-20T01:45:10.231Z,100878.83
2018-09-20T01:47:38.384Z,100880.78
2018-09-20T01:50:06.635Z,100881.30
2018-09-20T01:52:34.725Z,100884.16
2018-09-20T01:55:02.960Z,100873.11
2018-09-20T01:57:31.031Z,100872.15
2018-09-20T01:59:59.139Z,100876.65
2018-09-20T02:02:27.280Z,100876.20
2018-09-20T02:04:55.433Z,100877.11
2018-09-20T02:07:23.542Z,100872.59
2018-09-20T02:09:51.614Z,100869.88
2018-09-20T02:12:19.692Z,100879.59
2018-09-20T02:14:47.783Z,100874.77
2018-09-20T02:17:15.979Z,100881.44
2018-09-20T02:19:44.052Z,100873.42
2018-09-20T02:22:12.136Z,100875.06
2018-09-20T02:24:40.205Z,100874.98
2018-09-20T02:27:08.308Z,100875.91
2018-09-20T02:29:36.389Z,100876.95
2018-09-20T02:32:04.508Z,100867.09
2018-09-20T02:34:32.591Z,100874.09
2018-09-20T02:37:00.684Z,100875.08
2018-09-20T02:39:28.765Z,100874.90
2018-09-20T02:41:56.867Z,100879.03
2018-09-20T02:44:24.949Z,100883.38
2018-09-20T02:46:59.402Z,100883.71
2018-09-20T02:49:27.514Z,100887.82
2018-09-20T02:51:55.609Z,100885.58
2018-09-20T02:54:23.691Z,100887.77
2018-09-20T02:56:51.772Z,100884.45
2018-09-20T02:59:19.855Z,100885.81
2018-09-20T03:01:48.041Z,100883.32
2018-09-20T03:04:16.181Z,100880.45
2018-09-20T03:06:44.241Z,100884.97
2018-09-20T03:09:12.517Z,100881.43
2018-09-20T03:11:40.604Z,100879.77
2018-09-20T03:14:08.822Z,100881.72
2018-09-20T03:16:36.928Z,100889.59
2018-09-20T03:19:05.356Z,100886.34
2018-09-20T03:21:33.425Z,100884.80
2018-09-20T03:24:01.537Z,100888.76
2018-09-20T03:26:29.666Z,100891.66
2018-09-20T03:28:57.728Z,100886.99
2018-09-20T03:31:25.847Z,100896.12
2018-09-20T03:33:54.089Z,100895.44
2018-09-20T03:36:22.171Z,100895.84
2018-09-20T03:38:50.256Z,100896.72
2018-09-20T03:41:18.359Z,100897.59
2018-09-20T03:43:53.223Z,100898.33
2018-09-20T03:46:21.356Z,100899.45
2018-09-20T03:48:49.516Z,100907.59
2018-09-20T03:51:17.595Z,100906.08
2018-09-20T03:53:45.689Z,100899.98
2018-09-20T03:56:13.760Z,100906.27
2018-09-20T03:58:41.867Z,100898.22
2018-09-20T04:01:09.962Z,100901.00
2018-09-20T04:03:38.070Z,100901.20
2018-09-20T04:06:06.213Z,100900.91
2018-09-20T04:08:34.335Z,100904.50
2018-09-20T04:11:02.419Z,100901.37
2018-09-20T04:13:30.495Z,100902.41
2018-09-20T04:15:58.769Z,100907.16
2018-09-20T04:18:26.885Z,100901.89
2018-09-20T04:20:54.987Z,100907.20
2018-09-20T04:23:23.083Z,100904.37
2018-09-20T04:25:51.155Z,100901.62
2018-09-20T04:28:19.263Z,100905.44
2018-09-20T04:30:47.350Z,100903.48
2018-09-20T04:33:15.536Z,100905.94
2018-09-20T04:35:43.615Z,100909.44
2018-09-20T04:38:11.692Z,100909.53
2018-09-20T04:40:39.750Z,100910.59
2018-09-20T04:43:07.843Z,100915.02
2018-09-20T04:45:36.070Z,100914.50
2018-09-20T04:48:04.300Z,100918.13
2018-09-20T04:50:32.391Z,100918.27
2018-09-20T04:53:00.486Z,100918.19
2018-09-20T04:55:28.564Z,100916.69
2018-09-20T04:57:56.629Z,100916.69
2018-09-20T05:00:24.703Z,100919.45
2018-09-20T05:02:52.816Z,100918.75
2018-09-20T05:05:20.924Z,100919.21
2018-09-20T05:07:48.996Z,100924.09
2018-09-20T05:10:17.081Z,100918.47
2018-09-20T05:12:45.182Z,100920.05
2018-09-20T05:15:13.274Z,100919.21
2018-09-20T05:17:41.351Z,100923.59
2018-09-20T05:20:09.474Z,100917.25
2018-09-20T05:22:37.539Z,100921.30
2018-09-20T05:25:05.640Z,100927.59
2018-09-20T05:27:33.896Z,100928.44
2018-09-20T05:30:02.019Z,100930.24
2018-09-20T05:32:30.149Z,100932.63
2018-09-20T05:34:58.192Z,100932.11
2018-09-20T05:37:26.249Z,100932.94
2018-09-20T05:39:54.320Z,100932.11
2018-09-20T05:42:22.438Z,100933.97
2018-09-20T05:44:50.507Z,100926.62
2018-09-20T05:47:18.584Z,100931.05
2018-09-20T05:49:46.648Z,100929.18
2018-09-20T05:52:14.752Z,100936.02
2018-09-20T05:54:42.843Z,100931.22
2018-09-20T05:57:10.961Z,100932.58
2018-09-20T05:59:40.364Z,100931.59
2018-09-20T06:02:08.539Z,100940.02
2018-09-20T06:04:36.647Z,100949.53
2018-09-20T06:07:04.787Z,100940.55
2018-09-20T06:09:32.861Z,100940.12
2018-09-20T06:12:01.015Z,100939.60
2018-09-20T06:14:29.091Z,100943.05
2018-09-20T06:16:57.175Z,100947.99
2018-09-20T06:19:25.235Z,100949.05
2018-09-20T06:21:53.371Z,100951.49
2018-09-20T06:24:21.424Z,100950.75
2018-09-20T06:26:49.505Z,100951.53
2018-09-20T06:29:17.574Z,100950.92
2018-09-20T06:31:45.669Z,100956.73
2018-09-20T06:34:13.790Z,100951.80
2018-09-20T06:36:42.089Z,100959.00
2018-09-20T06:39:11.770Z,100960.22
2018-09-20T06:41:39.963Z,100960.35
2018-09-20T06:44:08.046Z,100954.80
2018-09-20T06:46:36.183Z,100954.97
2018-09-20T06:49:04.423Z,100949.41
2018-09-20T06:51:32.535Z,100953.64
2018-09-20T06:54:00.684Z,100953.89
2018-09-20T06:56:28.866Z,100946.59
2018-09-20T06:58:56.915Z,100955.53
2018-09-20T07:01:24.992Z,100955.98
2018-09-20T07:06:27.618Z,100954.92
2018-09-20T07:08:55.675Z,100957.16
2018-09-20T07:11:23.754Z,100955.17
2018-09-20T07:13:51.832Z,100964.59
2018-09-20T07:16:19.927Z,100959.77
2018-09-20T07:18:48.055Z,100959.06
2018-09-20T07:21:16.135Z,100967.23
2018-09-20T07:23:44.221Z,100962.56
2018-09-20T07:26:12.291Z,100961.80
2018-09-20T07:28:40.376Z,100951.09
2018-09-20T07:31:08.480Z,100953.48
2018-09-20T07:33:36.552Z,100955.08
2018-09-20T07:36:04.640Z,100946.98
2018-09-20T07:38:32.730Z,100946.69
2018-09-20T07:41:00.807Z,100951.13
2018-09-20T07:43:28.975Z,100947.98
2018-09-20T07:45:56.974Z,100952.91
2018-09-20T07:48:25.066Z,100944.11
2018-09-20T07:50:53.420Z,100946.72
2018-09-20T07:53:21.561Z,100954.20
2018-09-20T07:55:49.647Z,100949.23
2018-09-20T07:58:17.732Z,100949.91
2018-09-20T08:00:45.832Z,100944.00
2018-09-20T08:03:13.904Z,100943.66
2018-09-20T08:05:42.009Z,100946.17
2018-09-20T08:08:10.095Z,100944.92
2018-09-20T08:10:38.168Z,100944.14
2018-09-20T08:13:06.259Z,100948.96
2018-09-20T08:15:34.365Z,100948.09
2018-09-20T08:18:02.493Z,100939.28
2018-09-20T08:20:30.688Z,100949.31
2018-09-20T08:22:58.784Z,100944.28
2018-09-20T08:25:26.880Z,100949.61
2018-09-20T08:27:55.011Z,100941.58
2018-09-20T08:30:23.050Z,100950.01
2018-09-20T08:32:51.176Z,100945.80
2018-09-20T08:35:19.287Z,100950.60
2018-09-20T08:37:47.787Z,100948.03
2018-09-20T08:40:15.776Z,100952.46
2018-09-20T08:42:43.854Z,100940.12
2018-09-20T08:45:11.923Z,100950.09
2018-09-20T08:47:40.000Z,100947.17
2018-09-20T08:50:08.265Z,100949.13
2018-09-20T08:52:36.385Z,100943.21
2018-09-20T08:55:04.443Z,100944.84
2018-09-20T08:57:38.116Z,100942.23
2018-09-20T09:00:06.699Z,100941.52
2018-09-20T09:02:34.820Z,100941.55
2018-09-20T09:05:02.926Z,100943.36
2018-09-20T09:07:31.014Z,100943.36
2018-09-20T09:09:59.073Z,100939.55
2018-09-20T09:12:27.128Z,100936.31
2018-09-20T09:14:55.264Z,100933.73
2018-09-20T09:17:23.372Z,100926.98
2018-09-20T09:19:51.456Z,100927.82
2018-09-20T09:22:19.527Z,100927.64
2018-09-20T09:24:47.606Z,100925.97
2018-09-20T09:27:15.696Z,100934.72
2018-09-20T09:29:43.785Z,100924.37
2018-09-20T09:32:11.866Z,100922.75
2018-09-20T09:34:40.006Z,100919.48
2018-09-20T09:37:08.082Z,100919.53
2018-09-20T09:39:36.151Z,100912.69
2018-09-20T09:42:04.228Z,100910.55
2018-09-20T09:44:32.294Z,100910.04
2018-09-20T09:47:00.384Z,100903.81
2018-09-20T09:49:28.460Z,100902.73
2018-09-20T09:51:56.551Z,100900.84
2018-09-20T09:54:24.672Z,100904.66
2018-09-20T09:56:52.720Z,100907.41
2018-09-20T09:59:20.800Z,100901.66
2018-09-20T10:01:48.980Z,100892.64
2018-09-20T10:04:17.055Z,100893.73
2018-09-20T10:06:45.140Z,100887.48
2018-09-20T10:09:13.227Z,100883.36
2018-09-20T10:11:41.323Z,100875.70
2018-09-20T10:14:16.060Z,100875.69
2018-09-20T10:16:44.140Z,100869.38
2018-09-20T10:19:12.243Z,100864.17
2018-09-20T10:21:40.334Z,100863.09
2018-09-20T10:24:08.408Z,100854.34
2018-09-20T10:26:36.488Z,100853.48
2018-09-20T10:29:04.560Z,100858.67
2018-09-20T10:31:32.872Z,100855.56
2018-09-20T10:34:00.919Z,100855.51
2018-09-20T10:36:28.969Z,100853.89
2018-09-20T10:38:57.035Z,100854.37
2018-09-20T10:41:25.132Z,100851.58
2018-09-20T10:43:53.223Z,100846.10
2018-09-20T10:46:21.319Z,100842.29
2018-09-20T10:48:49.413Z,100846.92
2018-09-20T10:51:17.531Z,100846.91
2018-09-20T10:53:45.631Z,100832.14
2018-09-20T10:56:13.692Z,100841.66
2018-09-20T10:58:41.824Z,100828.44
2018-09-20T11:01:09.948Z,100819.87
2018-09-20T11:03:38.076Z,100821.15
2018-09-20T11:06:06.295Z,100810.95
2018-09-20T11:08:34.435Z,100809.33
2018-09-20T11:11:02.604Z,100800.11
2018-09-20T11:13:30.672Z,100795.81
2018-09-20T11:15:58.832Z,100792.03
2018-09-20T11:18:26.983Z,100784.44
2018-09-20T11:20:55.123Z,100790.80
2018-09-20T11:23:23.221Z,100792.41
2018-09-20T11:25:51.373Z,100791.31
2018-09-20T11:28:19.435Z,100786.12
2018-09-20T11:30:47.560Z,100785.86
2018-09-20T11:33:15.675Z,100775.09
2018-09-20T11:35:43.774Z,100778.88
2018-09-20T11:38:11.904Z,100767.95
2018-09-20T11:40:40.033Z,100763.12
2018-09-20T11:43:08.137Z,100762.72
2018-09-20T11:45:36.296Z,100772.87
2018-09-20T11:48:04.417Z,100766.05
2018-09-20T11:50:32.533Z,100752.16
2018-09-20T11:53:00.674Z,100754.13
2018-09-20T11:55:28.791Z,100756.22
2018-09-20T11:57:56.904Z,100745.69
2018-09-20T12:00:24.972Z,100755.89
2018-09-20T12:02:53.441Z,100751.31
2018-09-20T12:05:22.092Z,100745.42
2018-09-20T12:07:50.171Z,100750.00
2018-09-20T12:10:19.048Z,100742.00
2018-09-20T12:12:47.316Z,100738.06
2018-09-20T12:15:15.424Z,100723.47
2018-09-20T12:17:43.531Z,100718.56
2018-09-20T12:20:11.611Z,100717.36
2018-09-20T12:22:39.705Z,100713.48
2018-09-20T12:25:07.787Z,100711.73
2018-09-20T12:27:35.879Z,100712.23
2018-09-20T12:30:04.284Z,100709.31
2018-09-20T12:32:32.405Z,100702.29
2018-09-20T12:35:00.475Z,100700.20
2018-09-20T12:37:33.847Z,100693.22
2018-09-20T12:40:01.979Z,100695.10
2018-09-20T12:42:30.119Z,100688.92
2018-09-20T12:44:58.230Z,100687.62
2018-09-20T12:47:26.335Z,100685.47
2018-09-20T12:49:54.400Z,100690.02
2018-09-20T12:52:22.491Z,100685.70
2018-09-20T12:54:50.565Z,100680.59
2018-09-20T12:57:18.664Z,100674.16
2018-09-20T12:59:46.734Z,100677.11
2018-09-20T13:02:14.880Z,100673.96
2018-09-20T13:04:42.964Z,100674.31
2018-09-20T13:07:11.048Z,100663.80
2018-09-20T13:09:39.123Z,100664.28
2018-09-20T13:12:07.205Z,100660.16
2018-09-20T13:14:35.286Z,100666.56
2018-09-20T13:17:03.412Z,100656.92
2018-09-20T13:19:31.489Z,100658.62
2018-09-20T13:21:59.569Z,100653.34
2018-09-20T13:24:27.655Z,100655.92
2018-09-20T13:26:55.748Z,100649.86
2018-09-20T13:29:30.564Z,100649.81
2018-09-20T13:31:58.655Z,100655.42
2018-09-20T13:34:26.727Z,100651.30
2018-09-20T13:36:54.829Z,100647.72
2018-09-20T13:39:22.913Z,100645.02
2018-09-20T13:41:50.991Z,100648.13
2018-09-20T13:44:19.078Z,100637.98
2018-09-20T13:46:47.175Z,100638.13
2018-09-20T13:49:15.254Z,100636.44
2018-09-20T13:51:43.400Z,100636.57
2018-09-20T13:54:11.447Z,100627.17
2018-09-20T13:56:39.515Z,100637.85
2018-09-20T13:59:07.576Z,100634.01
2018-09-20T14:01:35.644Z,100627.99
2018-09-20T14:04:03.711Z,100630.51
2018-09-20T14:06:31.815Z,100631.70
2018-09-20T14:08:59.885Z,100622.77
2018-09-20T14:11:27.951Z,100621.60
2018-09-20T14:13:56.010Z,100614.00
2018-09-20T14:16:24.387Z,100610.17
2018-09-20T14:18:52.465Z,100600.31
2018-09-20T14:21:20.531Z,100606.32
2018-09-20T14:23:48.705Z,100604.49
2018-09-20T14:26:16.728Z,100599.98
2018-09-20T14:28:44.881Z,100585.52
2018-09-20T14:31:12.967Z,100593.54
2018-09-20T14:33:41.030Z,100582.69
2018-09-20T14:36:09.092Z,100582.55
2018-09-20T14:38:37.187Z,100582.81
2018-09-20T14:41:05.283Z,100583.26
2018-09-20T14:43:33.346Z,100574.70
2018-09-20T14:46:01.420Z,100581.17
2018-09-20T14:48:29.487Z,100580.80
2018-09-20T14:50:57.596Z,100571.30
2018-09-20T14:53:25.682Z,100573.46
2018-09-20T14:55:53.775Z,100573.67
2018-09-20T14:58:21.838Z,100562.20
2018-09-20T15:00:50.107Z,100554.39
2018-09-20T15:03:18.732Z,100554.19
2018-09-20T15:05:46.799Z,100552.86
2018-09-20T15:08:14.909Z,100544.73
2018-09-20T15:10:42.982Z,100545.61
2018-09-20T15:13:11.036Z,100544.65
2018-09-20T15:15:39.139Z,100546.25
2018-09-20T15:18:07.207Z,100542.55
2018-09-20T15:20:35.298Z,100538.23
2018-09-20T15:23:03.379Z,100532.81
2018-09-20T15:25:31.456Z,100532.81
2018-09-20T15:27:59.519Z,100534.42
2018-09-20T15:30:27.620Z,100536.13
2018-09-20T15:32:55.715Z,100529.16
2018-09-20T15:35:23.789Z,100522.61
2018-09-20T15:37:51.862Z,100533.75
2018-09-20T15:40:19.913Z,100533.29
2018-09-20T15:42:47.985Z,100526.59
2018-09-20T15:45:16.047Z,100527.28
2018-09-20T15:47:44.475Z,100520.22
2018-09-20T15:50:12.552Z,100525.40
2018-09-20T15:52:40.646Z,100514.70
2018-09-20T15:55:08.708Z,100517.03
2018-09-20T15:57:36.788Z,100519.77
2018-09-20T16:00:05.332Z,100513.94
2018-09-20T16:02:33.395Z,100515.96
2018-09-20T16:05:01.566Z,100511.80
2018-09-20T16:07:29.716Z,100510.31
2018-09-20T16:09:57.804Z,100511.86
2018-09-20T16:12:25.887Z,100511.80
2018-09-20T16:14:54.013Z,100508.09
2018-09-20T16:17:22.169Z,100503.39
2018-09-20T16:19:50.230Z,100499.14
2018-09-20T16:22:18.323Z,100496.70
2018-09-20T16:24:46.411Z,100487.95
2018-09-20T16:27:14.512Z,100489.88
2018-09-20T16:30:21.768Z,100480.81
2018-09-20T16:33:44.598Z,100477.39
2018-09-20T16:36:24.063Z,100477.05
2018-09-20T16:38:59.869Z,100473.55
2018-09-20T16:41:36.751Z,100476.29
2018-09-20T16:44:07.182Z,100473.58
2018-09-20T16:46:36.721Z,100467.30
2018-09-20T16:49:06.707Z,100468.16
2018-09-20T16:51:37.607Z,100465.27
2018-09-20T16:54:06.713Z,100461.07
2018-09-20T16:56:35.359Z,100458.88
2018-09-20T16:59:04.412Z,100463.94
2018-09-20T17:01:35.170Z,100456.93
2018-09-20T17:04:04.538Z,100458.70
2018-09-20T17:06:35.948Z,100457.99
2018-09-20T17:09:07.790Z,100451.63
2018-09-20T17:11:39.675Z,100449.50
2018-09-20T17:14:23.224Z,100453.98
2018-09-20T17:17:00.052Z,100459.05
2018-09-20T17:19:32.186Z,100459.12
2018-09-20T17:22:02.173Z,100455.89
2018-09-20T17:24:30.231Z,100454.02
2018-09-20T17:26:58.739Z,100454.34
2018-09-20T17:29:26.855Z,100458.29
2018-09-20T17:31:55.003Z,100456.51
2018-09-20T17:34:23.243Z,100454.67
2018-09-20T17:36:51.868Z,100455.62
2018-09-20T17:39:22.474Z,100456.57
2018-09-20T17:41:51.180Z,100453.62
2018-09-20T17:44:25.948Z,100454.78
2018-09-20T17:46:54.075Z,100458.47
2018-09-20T17:49:25.106Z,100453.05
2018-09-20T17:54:41.841Z,100449.40
2018-09-20T17:59:29.819Z,100457.41
2018-09-20T18:04:39.673Z,100446.31
2018-09-20T18:07:20.845Z,100443.89
2018-09-20T18:09:57.772Z,100448.00
2018-09-20T18:12:30.367Z,100446.39
2018-09-20T18:15:04.758Z,100446.72
2018-09-20T18:17:34.665Z,100445.64
2018-09-20T18:20:06.882Z,100448.95
2018-09-20T18:22:37.775Z,100450.63
2018-09-20T18:25:09.049Z,100448.16
2018-09-20T18:27:42.044Z,100447.64
2018-09-20T18:30:12.492Z,100439.99
2018-09-20T18:32:45.897Z,100441.10
2018-09-20T18:35:19.708Z,100438.36
2018-09-20T18:37:52.449Z,100442.19
2018-09-20T18:40:24.667Z,100445.20
2018-09-20T18:43:00.973Z,100442.48
2018-09-20T18:45:39.141Z,100437.02
2018-09-20T18:48:18.095Z,100438.94
2018-09-20T18:50:47.886Z,100437.31
2018-09-20T18:53:24.792Z,100437.57
2018-09-20T18:56:00.253Z,100436.21
2018-09-20T18:58:37.427Z,100443.02
2018-09-20T19:01:16.348Z,100437.58
2018-09-20T19:04:01.592Z,100438.09
2018-09-20T19:06:31.400Z,100428.27
2018-09-20T19:09:11.828Z,100430.98
2018-09-20T19:11:42.565Z,100429.09
2018-09-20T19:14:35.060Z,100431.52
2018-09-20T19:20:05.834Z,100418.67
2018-09-20T19:22:46.844Z,100412.92
2018-09-20T19:25:35.101Z,100411.27
2018-09-20T19:28:20.345Z,100415.03
2018-09-20T19:30:58.271Z,100412.32
2018-09-20T19:33:31.311Z,100410.12
2018-09-20T19:36:13.792Z,100411.42
2018-09-20T19:39:11.159Z,100403.16
2018-09-20T19:46:14.192Z,100402.21
2018-09-20T19:49:12.715Z,100401.47
2018-09-20T19:55:39.252Z,100401.47
2018-09-20T19:58:17.759Z,100394.30
2018-09-20T20:03:55.352Z,100392.63
2018-09-20T20:06:29.018Z,100391.73
2018-09-20T20:09:30.742Z,100391.88
2018-09-20T20:12:01.536Z,100391.56
2018-09-20T20:20:26.080Z,100386.31
2018-09-20T20:34:08.503Z,100378.70
2018-09-20T20:46:52.482Z,100367.84
2018-09-20T20:52:01.325Z,100368.44
2018-09-20T20:54:38.148Z,100365.73
2018-09-20T21:05:44.923Z,100362.37
2018-09-20T21:08:36.785Z,100353.07
2018-09-20T21:11:26.320Z,100354.73
2018-09-20T21:13:54.526Z,100347.91
2018-09-20T21:16:22.668Z,100347.23
2018-09-20T21:18:50.895Z,100350.92
2018-09-20T21:21:19.198Z,100337.33
2018-09-20T21:23:47.384Z,100347.16
2018-09-20T21:26:16.002Z,100355.44
2018-09-20T21:28:44.276Z,100347.61
2018-09-20T21:31:12.461Z,100349.97
2018-09-20T21:33:40.818Z,100341.87
2018-09-20T21:36:09.675Z,100333.48
2018-09-20T21:38:39.092Z,100333.66
2018-09-20T21:41:07.380Z,100335.35
2018-09-20T21:43:35.588Z,100324.80
2018-09-20T21:46:03.942Z,100330.67
2018-09-20T21:48:32.318Z,100327.17
2018-09-20T21:51:01.002Z,100312.60
2018-09-20T21:53:29.189Z,100315.05
2018-09-20T21:55:57.377Z,100313.88
2018-09-20T21:58:25.552Z,100313.53
2018-09-20T22:01:02.420Z,100311.30
2018-09-20T22:03:31.276Z,100297.44
2018-09-20T22:05:59.459Z,100307.36
2018-09-20T22:08:27.644Z,100303.17
2018-09-20T22:10:56.001Z,100299.06
2018-09-20T22:13:24.479Z,100297.42
2018-09-20T22:15:52.776Z,100297.81
2018-09-20T22:18:21.020Z,100293.53
2018-09-20T22:20:49.217Z,100293.59
2018-09-20T22:23:17.459Z,100298.58
2018-09-20T22:25:45.719Z,100289.67
2018-09-20T22:28:13.932Z,100287.66
2018-09-20T22:30:42.173Z,100287.39
2018-09-20T22:33:10.374Z,100285.83
2018-09-20T22:35:38.633Z,100281.20
2018-09-20T22:38:06.865Z,100274.64
2018-09-20T22:40:34.923Z,100273.16
2018-09-20T22:43:03.003Z,100280.87
2018-09-20T22:45:31.069Z,100277.17
2018-09-20T22:47:59.169Z,100274.72
2018-09-20T22:50:27.281Z,100273.89
2018-09-20T22:52:55.348Z,100266.65
2018-09-20T22:55:23.446Z,100267.64
2018-09-20T22:57:51.507Z,100263.73
2018-09-20T23:00:23.948Z,100262.17
2018-09-20T23:02:53.144Z,100260.34
2018-09-20T23:05:21.249Z,100244.53
2018-09-20T23:07:49.318Z,100251.44
2018-09-20T23:10:17.419Z,100256.50
2018-09-20T23:12:46.004Z,100256.80
2018-09-20T23:15:14.101Z,100257.48
2018-09-20T23:17:42.150Z,100258.56
2018-09-20T23:20:10.220Z,100255.35
2018-09-20T23:22:38.288Z,100255.39
2018-09-20T23:25:06.440Z,100253.26
2018-09-20T23:27:34.501Z,100254.16
2018-09-20T23:30:02.579Z,100250.95
2018-09-20T23:32:30.675Z,100245.07
2018-09-20T23:34:58.766Z,100251.41
2018-09-20T23:37:26.827Z,100248.25
2018-09-20T23:39:54.883Z,100247.45
2018-09-20T23:42:22.950Z,100245.27
2018-09-20T23:44:51.015Z,100240.38
2018-09-20T23:47:19.068Z,100234.34
2018-09-20T23:49:47.151Z,100239.23
2018-09-20T23:52:15.211Z,100234.30
2018-09-20T23:54:43.293Z,100231.22
2018-09-20T23:57:11.370Z,100228.64
2018-09-20T23:59:39.451Z,100224.28
